Aldrich, Minnesota
Current Conditions -  °F | °C
As of 5:33 PM on Monday 20 Oct 2014 (Local Time) from KSAZ Reporting Station
Clear Clear  
Wind Chill: 57°   Ceiling: Unl
Heat Index: 57°   Visibility: 10mi
Dew Point: 34°   Wind: 5mph
Humidity: 41%   Direction: 350°N
Pressure: 30.02"   Gusts: NA
Location:  46.38°N, 94.94°W
Report Text: KSAZ 202233Z AUTO 35004KT 10SM CLR 14/01 A3002 RMK AO2
Loading
Personal Weather Stations






























Interactive Weather Map
Tropical Storm Tracking
New forecast layout! Learn more

10-Day Weather Forecast

Advertisements
Track Severe Weather on mobile